sensor_id;sensor_type;location;lat;lon;timestamp;P1;durP1;ratioP1;P2;durP2;ratioP2
61015;SDS011;46902;52.920;6.536;2023-07-30T00:01:19;11.63;;;4.75;;
61015;SDS011;46902;52.920;6.536;2023-07-30T00:03:45;11.55;;;4.65;;
61015;SDS011;46902;52.920;6.536;2023-07-30T00:06:10;11.77;;;4.20;;
61015;SDS011;46902;52.920;6.536;2023-07-30T00:08:36;12.13;;;4.95;;
61015;SDS011;46902;52.920;6.536;2023-07-30T00:11:02;10.45;;;4.82;;
61015;SDS011;46902;52.920;6.536;2023-07-30T00:13:27;9.93;;;4.07;;
61015;SDS011;46902;52.920;6.536;2023-07-30T00:15:53;13.20;;;4.25;;
61015;SDS011;46902;52.920;6.536;2023-07-30T00:18:18;13.15;;;4.82;;
61015;SDS011;46902;52.920;6.536;2023-07-30T00:20:44;11.10;;;4.53;;
61015;SDS011;46902;52.920;6.536;2023-07-30T00:23:10;15.00;;;4.40;;
61015;SDS011;46902;52.920;6.536;2023-07-30T00:25:35;15.23;;;4.65;;
61015;SDS011;46902;52.920;6.536;2023-07-30T00:28:01;14.07;;;4.13;;
61015;SDS011;46902;52.920;6.536;2023-07-30T00:30:26;15.00;;;4.20;;
61015;SDS011;46902;52.920;6.536;2023-07-30T00:32:52;13.10;;;4.22;;
61015;SDS011;46902;52.920;6.536;2023-07-30T00:35:17;14.38;;;4.28;;
61015;SDS011;46902;52.920;6.536;2023-07-30T00:37:43;16.88;;;4.55;;
61015;SDS011;46902;52.920;6.536;2023-07-30T00:40:09;16.77;;;5.07;;
61015;SDS011;46902;52.920;6.536;2023-07-30T00:42:35;16.73;;;4.93;;
61015;SDS011;46902;52.920;6.536;2023-07-30T00:45:00;17.58;;;4.65;;
61015;SDS011;46902;52.920;6.536;2023-07-30T00:47:26;14.93;;;4.40;;
61015;SDS011;46902;52.920;6.536;2023-07-30T00:49:52;15.10;;;4.88;;
61015;SDS011;46902;52.920;6.536;2023-07-30T00:52:18;16.02;;;4.95;;
61015;SDS011;46902;52.920;6.536;2023-07-30T00:54:49;17.65;;;5.25;;
61015;SDS011;46902;52.920;6.536;2023-07-30T00:57:16;12.80;;;5.30;;
61015;SDS011;46902;52.920;6.536;2023-07-30T00:59:44;13.38;;;4.55;;
61015;SDS011;46902;52.920;6.536;2023-07-30T01:02:11;18.80;;;5.20;;
61015;SDS011;46902;52.920;6.536;2023-07-30T01:04:37;16.70;;;5.00;;
61015;SDS011;46902;52.920;6.536;2023-07-30T01:07:04;15.70;;;5.30;;
61015;SDS011;46902;52.920;6.536;2023-07-30T01:09:31;15.93;;;5.43;;
61015;SDS011;46902;52.920;6.536;2023-07-30T01:11:57;14.70;;;5.10;;
61015;SDS011;46902;52.920;6.536;2023-07-30T01:14:24;16.25;;;5.40;;
61015;SDS011;46902;52.920;6.536;2023-07-30T01:16:51;17.05;;;5.32;;
61015;SDS011;46902;52.920;6.536;2023-07-30T01:19:17;20.80;;;5.20;;
61015;SDS011;46902;52.920;6.536;2023-07-30T01:21:43;17.30;;;4.93;;
61015;SDS011;46902;52.920;6.536;2023-07-30T01:24:09;17.30;;;5.10;;
61015;SDS011;46902;52.920;6.536;2023-07-30T01:26:37;20.35;;;5.35;;
61015;SDS011;46902;52.920;6.536;2023-07-30T01:29:09;17.25;;;5.25;;
61015;SDS011;46902;52.920;6.536;2023-07-30T01:31:40;20.38;;;5.63;;
61015;SDS011;46902;52.920;6.536;2023-07-30T01:34:07;16.02;;;4.35;;
61015;SDS011;46902;52.920;6.536;2023-07-30T01:36:34;19.25;;;5.38;;
61015;SDS011;46902;52.920;6.536;2023-07-30T01:39:01;17.25;;;5.32;;
61015;SDS011;46902;52.920;6.536;2023-07-30T01:41:27;18.52;;;5.00;;
61015;SDS011;46902;52.920;6.536;2023-07-30T01:43:53;15.52;;;4.57;;
61015;SDS011;46902;52.920;6.536;2023-07-30T01:46:19;16.45;;;4.45;;
61015;SDS011;46902;52.920;6.536;2023-07-30T01:48:44;19.05;;;4.82;;
61015;SDS011;46902;52.920;6.536;2023-07-30T01:51:10;19.70;;;5.00;;
61015;SDS011;46902;52.920;6.536;2023-07-30T01:53:36;16.35;;;4.88;;
61015;SDS011;46902;52.920;6.536;2023-07-30T01:56:01;18.80;;;4.75;;
61015;SDS011;46902;52.920;6.536;2023-07-30T01:58:27;12.45;;;4.70;;
61015;SDS011;46902;52.920;6.536;2023-07-30T02:00:52;17.00;;;4.55;;
61015;SDS011;46902;52.920;6.536;2023-07-30T02:03:18;18.52;;;4.97;;
61015;SDS011;46902;52.920;6.536;2023-07-30T02:05:44;16.10;;;4.80;;
61015;SDS011;46902;52.920;6.536;2023-07-30T02:08:09;15.60;;;4.50;;
61015;SDS011;46902;52.920;6.536;2023-07-30T02:10:35;16.90;;;4.10;;
61015;SDS011;46902;52.920;6.536;2023-07-30T02:13:00;16.40;;;4.63;;
61015;SDS011;46902;52.920;6.536;2023-07-30T02:15:26;17.48;;;4.82;;
61015;SDS011;46902;52.920;6.536;2023-07-30T02:17:52;15.50;;;4.38;;
61015;SDS011;46902;52.920;6.536;2023-07-30T02:20:17;15.30;;;4.68;;
61015;SDS011;46902;52.920;6.536;2023-07-30T02:22:43;16.13;;;4.63;;
61015;SDS011;46902;52.920;6.536;2023-07-30T02:25:08;17.20;;;4.22;;
61015;SDS011;46902;52.920;6.536;2023-07-30T02:27:34;14.82;;;4.20;;
61015;SDS011;46902;52.920;6.536;2023-07-30T02:29:59;18.20;;;4.40;;
61015;SDS011;46902;52.920;6.536;2023-07-30T02:32:25;14.98;;;4.18;;
61015;SDS011;46902;52.920;6.536;2023-07-30T02:34:51;16.30;;;4.05;;
61015;SDS011;46902;52.920;6.536;2023-07-30T02:37:16;14.95;;;3.88;;
61015;SDS011;46902;52.920;6.536;2023-07-30T02:39:42;13.70;;;4.00;;
61015;SDS011;46902;52.920;6.536;2023-07-30T02:42:07;15.80;;;4.43;;
61015;SDS011;46902;52.920;6.536;2023-07-30T02:44:33;13.15;;;4.15;;
61015;SDS011;46902;52.920;6.536;2023-07-30T02:46:59;18.15;;;4.18;;
61015;SDS011;46902;52.920;6.536;2023-07-30T02:49:24;16.27;;;4.65;;
61015;SDS011;46902;52.920;6.536;2023-07-30T02:51:50;14.85;;;4.28;;
61015;SDS011;46902;52.920;6.536;2023-07-30T02:54:15;17.83;;;4.53;;
61015;SDS011;46902;52.920;6.536;2023-07-30T02:56:42;10.70;;;3.75;;
61015;SDS011;46902;52.920;6.536;2023-07-30T02:59:08;18.48;;;4.35;;
61015;SDS011;46902;52.920;6.536;2023-07-30T03:01:33;13.68;;;3.50;;
61015;SDS011;46902;52.920;6.536;2023-07-30T03:03:59;14.55;;;4.22;;
61015;SDS011;46902;52.920;6.536;2023-07-30T03:06:25;16.88;;;3.80;;
61015;SDS011;46902;52.920;6.536;2023-07-30T03:08:50;17.80;;;3.90;;
61015;SDS011;46902;52.920;6.536;2023-07-30T03:11:16;15.75;;;3.88;;
61015;SDS011;46902;52.920;6.536;2023-07-30T03:13:41;14.25;;;4.35;;
61015;SDS011;46902;52.920;6.536;2023-07-30T03:16:07;16.17;;;3.80;;
61015;SDS011;46902;52.920;6.536;2023-07-30T03:18:32;15.20;;;3.83;;
61015;SDS011;46902;52.920;6.536;2023-07-30T03:20:59;16.33;;;4.60;;
61015;SDS011;46902;52.920;6.536;2023-07-30T03:23:25;15.32;;;3.97;;
61015;SDS011;46902;52.920;6.536;2023-07-30T03:25:51;12.57;;;3.67;;
61015;SDS011;46902;52.920;6.536;2023-07-30T03:28:16;18.77;;;3.88;;
61015;SDS011;46902;52.920;6.536;2023-07-30T03:30:42;10.07;;;3.20;;
61015;SDS011;46902;52.920;6.536;2023-07-30T03:33:08;15.05;;;3.53;;
61015;SDS011;46902;52.920;6.536;2023-07-30T03:35:33;13.73;;;3.40;;
61015;SDS011;46902;52.920;6.536;2023-07-30T03:37:59;13.02;;;4.30;;
61015;SDS011;46902;52.920;6.536;2023-07-30T03:40:24;14.07;;;3.63;;
61015;SDS011;46902;52.920;6.536;2023-07-30T03:42:50;17.67;;;3.30;;
61015;SDS011;46902;52.920;6.536;2023-07-30T03:45:16;13.48;;;4.00;;
61015;SDS011;46902;52.920;6.536;2023-07-30T03:47:42;17.35;;;3.80;;
61015;SDS011;46902;52.920;6.536;2023-07-30T03:50:08;14.48;;;4.47;;
61015;SDS011;46902;52.920;6.536;2023-07-30T03:52:33;16.40;;;3.80;;
61015;SDS011;46902;52.920;6.536;2023-07-30T03:54:59;10.07;;;3.28;;
61015;SDS011;46902;52.920;6.536;2023-07-30T03:57:25;17.50;;;3.65;;
61015;SDS011;46902;52.920;6.536;2023-07-30T03:59:50;15.68;;;3.33;;
61015;SDS011;46902;52.920;6.536;2023-07-30T04:02:16;21.63;;;4.75;;
61015;SDS011;46902;52.920;6.536;2023-07-30T04:04:42;16.58;;;3.22;;
61015;SDS011;46902;52.920;6.536;2023-07-30T04:07:09;13.05;;;3.65;;
61015;SDS011;46902;52.920;6.536;2023-07-30T04:09:35;13.75;;;3.70;;
61015;SDS011;46902;52.920;6.536;2023-07-30T04:12:01;19.08;;;3.95;;
61015;SDS011;46902;52.920;6.536;2023-07-30T04:14:27;13.20;;;3.50;;
61015;SDS011;46902;52.920;6.536;2023-07-30T04:16:52;15.27;;;3.50;;
61015;SDS011;46902;52.920;6.536;2023-07-30T04:19:18;17.27;;;3.67;;
61015;SDS011;46902;52.920;6.536;2023-07-30T04:21:44;18.08;;;3.70;;
61015;SDS011;46902;52.920;6.536;2023-07-30T04:24:10;13.32;;;3.63;;
61015;SDS011;46902;52.920;6.536;2023-07-30T04:26:35;18.77;;;4.05;;
61015;SDS011;46902;52.920;6.536;2023-07-30T04:29:01;14.35;;;3.58;;
61015;SDS011;46902;52.920;6.536;2023-07-30T04:31:26;12.57;;;4.07;;
61015;SDS011;46902;52.920;6.536;2023-07-30T04:33:52;13.35;;;3.65;;
61015;SDS011;46902;52.920;6.536;2023-07-30T04:36:18;14.07;;;3.72;;
61015;SDS011;46902;52.920;6.536;2023-07-30T04:38:43;11.00;;;4.03;;
61015;SDS011;46902;52.920;6.536;2023-07-30T04:41:09;13.48;;;3.90;;
61015;SDS011;46902;52.920;6.536;2023-07-30T04:43:34;19.50;;;3.90;;
61015;SDS011;46902;52.920;6.536;2023-07-30T04:46:00;18.67;;;4.25;;
61015;SDS011;46902;52.920;6.536;2023-07-30T04:48:25;16.38;;;3.88;;
61015;SDS011;46902;52.920;6.536;2023-07-30T04:50:51;15.25;;;4.00;;
61015;SDS011;46902;52.920;6.536;2023-07-30T04:53:17;20.40;;;4.10;;
61015;SDS011;46902;52.920;6.536;2023-07-30T04:55:43;16.02;;;4.10;;
61015;SDS011;46902;52.920;6.536;2023-07-30T04:58:09;14.98;;;4.13;;
61015;SDS011;46902;52.920;6.536;2023-07-30T05:00:35;18.70;;;4.18;;
61015;SDS011;46902;52.920;6.536;2023-07-30T05:03:00;15.85;;;4.00;;
61015;SDS011;46902;52.920;6.536;2023-07-30T05:05:26;19.35;;;4.35;;
61015;SDS011;46902;52.920;6.536;2023-07-30T05:07:51;16.27;;;3.80;;
61015;SDS011;46902;52.920;6.536;2023-07-30T05:10:17;12.80;;;3.95;;
61015;SDS011;46902;52.920;6.536;2023-07-30T05:12:42;14.50;;;3.75;;
61015;SDS011;46902;52.920;6.536;2023-07-30T05:15:08;17.23;;;4.15;;
61015;SDS011;46902;52.920;6.536;2023-07-30T05:17:34;19.15;;;4.65;;
61015;SDS011;46902;52.920;6.536;2023-07-30T05:19:59;15.55;;;3.85;;
61015;SDS011;46902;52.920;6.536;2023-07-30T05:22:25;19.45;;;4.22;;
61015;SDS011;46902;52.920;6.536;2023-07-30T05:24:51;17.88;;;3.92;;
61015;SDS011;46902;52.920;6.536;2023-07-30T05:27:16;16.90;;;4.25;;
61015;SDS011;46902;52.920;6.536;2023-07-30T05:29:42;18.10;;;4.25;;
61015;SDS011;46902;52.920;6.536;2023-07-30T05:32:08;20.95;;;4.43;;
61015;SDS011;46902;52.920;6.536;2023-07-30T05:34:34;21.58;;;4.43;;
61015;SDS011;46902;52.920;6.536;2023-07-30T05:36:59;22.67;;;4.65;;
61015;SDS011;46902;52.920;6.536;2023-07-30T05:39:25;20.75;;;4.80;;
61015;SDS011;46902;52.920;6.536;2023-07-30T05:41:51;24.67;;;4.75;;
61015;SDS011;46902;52.920;6.536;2023-07-30T05:44:16;19.48;;;4.68;;
61015;SDS011;46902;52.920;6.536;2023-07-30T05:46:42;17.48;;;4.53;;
61015;SDS011;46902;52.920;6.536;2023-07-30T05:49:08;22.58;;;5.00;;
61015;SDS011;46902;52.920;6.536;2023-07-30T05:51:34;18.33;;;4.78;;
61015;SDS011;46902;52.920;6.536;2023-07-30T05:53:59;20.35;;;4.85;;
61015;SDS011;46902;52.920;6.536;2023-07-30T05:56:25;17.30;;;4.97;;
61015;SDS011;46902;52.920;6.536;2023-07-30T05:58:51;23.75;;;5.07;;
61015;SDS011;46902;52.920;6.536;2023-07-30T06:01:16;16.60;;;5.30;;
61015;SDS011;46902;52.920;6.536;2023-07-30T06:03:42;20.13;;;4.68;;
61015;SDS011;46902;52.920;6.536;2023-07-30T06:06:08;23.20;;;4.63;;
61015;SDS011;46902;52.920;6.536;2023-07-30T06:08:33;22.40;;;5.43;;
61015;SDS011;46902;52.920;6.536;2023-07-30T06:11:02;19.23;;;4.30;;
61015;SDS011;46902;52.920;6.536;2023-07-30T06:13:28;23.58;;;5.28;;
61015;SDS011;46902;52.920;6.536;2023-07-30T06:15:54;20.05;;;4.57;;
61015;SDS011;46902;52.920;6.536;2023-07-30T06:18:20;29.42;;;5.32;;
61015;SDS011;46902;52.920;6.536;2023-07-30T06:20:46;25.25;;;5.22;;
61015;SDS011;46902;52.920;6.536;2023-07-30T06:23:12;18.02;;;4.57;;
61015;SDS011;46902;52.920;6.536;2023-07-30T06:25:37;20.00;;;5.03;;
61015;SDS011;46902;52.920;6.536;2023-07-30T06:28:04;25.27;;;5.18;;
61015;SDS011;46902;52.920;6.536;2023-07-30T06:30:31;17.33;;;4.90;;
61015;SDS011;46902;52.920;6.536;2023-07-30T06:32:57;18.33;;;4.45;;
61015;SDS011;46902;52.920;6.536;2023-07-30T06:35:22;21.20;;;5.10;;
61015;SDS011;46902;52.920;6.536;2023-07-30T06:37:49;20.45;;;5.18;;
61015;SDS011;46902;52.920;6.536;2023-07-30T06:40:15;23.60;;;4.78;;
61015;SDS011;46902;52.920;6.536;2023-07-30T06:42:41;24.15;;;5.50;;
61015;SDS011;46902;52.920;6.536;2023-07-30T06:45:07;25.08;;;4.35;;
61015;SDS011;46902;52.920;6.536;2023-07-30T06:47:33;23.38;;;4.78;;
61015;SDS011;46902;52.920;6.536;2023-07-30T06:49:59;18.63;;;4.78;;
61015;SDS011;46902;52.920;6.536;2023-07-30T06:52:24;20.60;;;4.75;;
61015;SDS011;46902;52.920;6.536;2023-07-30T06:54:50;22.63;;;5.03;;
61015;SDS011;46902;52.920;6.536;2023-07-30T06:57:16;18.05;;;4.63;;
61015;SDS011;46902;52.920;6.536;2023-07-30T06:59:41;18.67;;;4.30;;
61015;SDS011;46902;52.920;6.536;2023-07-30T07:02:07;21.02;;;4.47;;
61015;SDS011;46902;52.920;6.536;2023-07-30T07:04:33;17.58;;;4.50;;
61015;SDS011;46902;52.920;6.536;2023-07-30T07:06:58;24.55;;;4.85;;
61015;SDS011;46902;52.920;6.536;2023-07-30T07:09:24;18.27;;;4.18;;
61015;SDS011;46902;52.920;6.536;2023-07-30T07:11:49;19.80;;;3.50;;
61015;SDS011;46902;52.920;6.536;2023-07-30T07:14:15;11.98;;;3.88;;
61015;SDS011;46902;52.920;6.536;2023-07-30T07:16:40;19.77;;;3.55;;
61015;SDS011;46902;52.920;6.536;2023-07-30T07:19:06;19.42;;;4.80;;
61015;SDS011;46902;52.920;6.536;2023-07-30T07:21:32;19.58;;;4.53;;
61015;SDS011;46902;52.920;6.536;2023-07-30T07:23:57;20.25;;;3.92;;
61015;SDS011;46902;52.920;6.536;2023-07-30T07:26:23;16.80;;;3.63;;
61015;SDS011;46902;52.920;6.536;2023-07-30T07:28:48;15.57;;;3.30;;
61015;SDS011;46902;52.920;6.536;2023-07-30T07:31:14;14.68;;;4.20;;
61015;SDS011;46902;52.920;6.536;2023-07-30T07:33:40;19.30;;;3.90;;
61015;SDS011;46902;52.920;6.536;2023-07-30T07:36:06;21.05;;;4.00;;
61015;SDS011;46902;52.920;6.536;2023-07-30T07:38:33;17.98;;;3.67;;
61015;SDS011;46902;52.920;6.536;2023-07-30T07:40:59;19.52;;;3.83;;
61015;SDS011;46902;52.920;6.536;2023-07-30T07:43:25;15.50;;;3.55;;
61015;SDS011;46902;52.920;6.536;2023-07-30T07:45:51;14.68;;;4.00;;
61015;SDS011;46902;52.920;6.536;2023-07-30T07:48:17;16.40;;;3.20;;
61015;SDS011;46902;52.920;6.536;2023-07-30T07:50:42;15.70;;;3.58;;
61015;SDS011;46902;52.920;6.536;2023-07-30T07:53:10;15.85;;;3.95;;
61015;SDS011;46902;52.920;6.536;2023-07-30T07:55:36;15.73;;;3.17;;
61015;SDS011;46902;52.920;6.536;2023-07-30T07:58:02;15.85;;;3.13;;
61015;SDS011;46902;52.920;6.536;2023-07-30T08:00:27;15.13;;;3.15;;
61015;SDS011;46902;52.920;6.536;2023-07-30T08:02:53;14.38;;;2.90;;
61015;SDS011;46902;52.920;6.536;2023-07-30T08:05:18;11.68;;;2.78;;
61015;SDS011;46902;52.920;6.536;2023-07-30T08:07:49;22.05;;;3.58;;
61015;SDS011;46902;52.920;6.536;2023-07-30T08:10:15;12.68;;;2.70;;
61015;SDS011;46902;52.920;6.536;2023-07-30T08:12:41;11.82;;;2.78;;
61015;SDS011;46902;52.920;6.536;2023-07-30T08:15:07;14.32;;;2.45;;
61015;SDS011;46902;52.920;6.536;2023-07-30T08:17:33;15.52;;;3.00;;
61015;SDS011;46902;52.920;6.536;2023-07-30T08:19:58;12.90;;;2.92;;
61015;SDS011;46902;52.920;6.536;2023-07-30T08:22:24;16.88;;;3.33;;
61015;SDS011;46902;52.920;6.536;2023-07-30T08:24:50;20.30;;;4.20;;
61015;SDS011;46902;52.920;6.536;2023-07-30T08:27:15;17.75;;;3.58;;
61015;SDS011;46902;52.920;6.536;2023-07-30T08:29:41;19.95;;;3.85;;
61015;SDS011;46902;52.920;6.536;2023-07-30T08:32:06;14.68;;;3.15;;
61015;SDS011;46902;52.920;6.536;2023-07-30T08:34:32;17.55;;;3.15;;
61015;SDS011;46902;52.920;6.536;2023-07-30T08:36:57;13.55;;;2.45;;
61015;SDS011;46902;52.920;6.536;2023-07-30T08:39:23;12.35;;;2.20;;
61015;SDS011;46902;52.920;6.536;2023-07-30T08:41:49;11.25;;;2.35;;
61015;SDS011;46902;52.920;6.536;2023-07-30T08:44:14;16.77;;;3.55;;
61015;SDS011;46902;52.920;6.536;2023-07-30T08:46:40;11.20;;;2.13;;
61015;SDS011;46902;52.920;6.536;2023-07-30T08:49:05;13.13;;;2.67;;
61015;SDS011;46902;52.920;6.536;2023-07-30T08:51:31;15.32;;;3.40;;
61015;SDS011;46902;52.920;6.536;2023-07-30T08:54:00;11.60;;;2.92;;
61015;SDS011;46902;52.920;6.536;2023-07-30T08:56:26;9.35;;;2.50;;
61015;SDS011;46902;52.920;6.536;2023-07-30T08:58:52;14.77;;;3.20;;
61015;SDS011;46902;52.920;6.536;2023-07-30T09:01:22;29.98;;;4.50;;
61015;SDS011;46902;52.920;6.536;2023-07-30T09:03:56;14.23;;;3.28;;
61015;SDS011;46902;52.920;6.536;2023-07-30T09:06:25;9.63;;;2.53;;
61015;SDS011;46902;52.920;6.536;2023-07-30T09:08:50;12.00;;;2.30;;
61015;SDS011;46902;52.920;6.536;2023-07-30T09:11:16;12.38;;;2.42;;
61015;SDS011;46902;52.920;6.536;2023-07-30T09:13:42;13.50;;;2.65;;
61015;SDS011;46902;52.920;6.536;2023-07-30T09:16:08;13.77;;;2.97;;
61015;SDS011;46902;52.920;6.536;2023-07-30T09:18:42;14.02;;;2.75;;
61015;SDS011;46902;52.920;6.536;2023-07-30T09:21:11;11.43;;;2.78;;
61015;SDS011;46902;52.920;6.536;2023-07-30T09:23:41;15.82;;;2.70;;
61015;SDS011;46902;52.920;6.536;2023-07-30T09:26:08;13.90;;;3.58;;
61015;SDS011;46902;52.920;6.536;2023-07-30T09:28:34;15.60;;;3.60;;
61015;SDS011;46902;52.920;6.536;2023-07-30T09:31:04;15.43;;;2.92;;
61015;SDS011;46902;52.920;6.536;2023-07-30T09:33:31;8.85;;;2.42;;
61015;SDS011;46902;52.920;6.536;2023-07-30T09:35:58;14.45;;;2.20;;
61015;SDS011;46902;52.920;6.536;2023-07-30T09:38:27;9.55;;;1.73;;
61015;SDS011;46902;52.920;6.536;2023-07-30T09:41:00;8.65;;;1.60;;
61015;SDS011;46902;52.920;6.536;2023-07-30T09:43:32;9.80;;;1.73;;
61015;SDS011;46902;52.920;6.536;2023-07-30T09:46:01;7.72;;;1.65;;
61015;SDS011;46902;52.920;6.536;2023-07-30T09:48:31;9.35;;;2.00;;
61015;SDS011;46902;52.920;6.536;2023-07-30T09:51:02;7.97;;;2.15;;
61015;SDS011;46902;52.920;6.536;2023-07-30T09:53:32;10.85;;;1.80;;
61015;SDS011;46902;52.920;6.536;2023-07-30T09:56:04;5.22;;;1.33;;
61015;SDS011;46902;52.920;6.536;2023-07-30T09:58:33;8.50;;;1.65;;
61015;SDS011;46902;52.920;6.536;2023-07-30T10:01:01;8.25;;;1.75;;
61015;SDS011;46902;52.920;6.536;2023-07-30T10:03:29;9.98;;;2.33;;
61015;SDS011;46902;52.920;6.536;2023-07-30T10:06:01;9.30;;;2.15;;
61015;SDS011;46902;52.920;6.536;2023-07-30T10:08:29;7.85;;;1.98;;
61015;SDS011;46902;52.920;6.536;2023-07-30T10:10:59;7.53;;;1.77;;
61015;SDS011;46902;52.920;6.536;2023-07-30T10:13:28;8.13;;;1.88;;
61015;SDS011;46902;52.920;6.536;2023-07-30T10:15:55;6.68;;;1.73;;
61015;SDS011;46902;52.920;6.536;2023-07-30T10:18:22;6.95;;;1.73;;
61015;SDS011;46902;52.920;6.536;2023-07-30T10:20:52;9.70;;;2.10;;
61015;SDS011;46902;52.920;6.536;2023-07-30T10:23:22;8.20;;;1.90;;
61015;SDS011;46902;52.920;6.536;2023-07-30T10:25:52;9.65;;;2.08;;
61015;SDS011;46902;52.920;6.536;2023-07-30T10:30:56;8.88;;;2.15;;
61015;SDS011;46902;52.920;6.536;2023-07-30T10:33:23;6.03;;;1.92;;
61015;SDS011;46902;52.920;6.536;2023-07-30T10:35:49;9.57;;;1.83;;
61015;SDS011;46902;52.920;6.536;2023-07-30T10:38:29;7.47;;;1.88;;
61015;SDS011;46902;52.920;6.536;2023-07-30T10:43:34;12.07;;;2.53;;
61015;SDS011;46902;52.920;6.536;2023-07-30T10:46:01;11.75;;;2.72;;
61015;SDS011;46902;52.920;6.536;2023-07-30T10:51:01;10.93;;;2.03;;
61015;SDS011;46902;52.920;6.536;2023-07-30T10:53:29;9.20;;;2.10;;
61015;SDS011;46902;52.920;6.536;2023-07-30T10:55:57;11.77;;;2.13;;
61015;SDS011;46902;52.920;6.536;2023-07-30T10:58:28;12.65;;;2.45;;
61015;SDS011;46902;52.920;6.536;2023-07-30T11:00:55;8.88;;;2.20;;
61015;SDS011;46902;52.920;6.536;2023-07-30T11:03:23;10.82;;;2.33;;
61015;SDS011;46902;52.920;6.536;2023-07-30T11:05:51;6.85;;;1.67;;
61015;SDS011;46902;52.920;6.536;2023-07-30T11:08:17;11.45;;;2.28;;
61015;SDS011;46902;52.920;6.536;2023-07-30T11:10:43;8.40;;;2.05;;
61015;SDS011;46902;52.920;6.536;2023-07-30T11:13:11;9.93;;;2.05;;
61015;SDS011;46902;52.920;6.536;2023-07-30T11:15:42;8.52;;;1.90;;
61015;SDS011;46902;52.920;6.536;2023-07-30T11:18:11;10.15;;;2.13;;
61015;SDS011;46902;52.920;6.536;2023-07-30T11:20:37;9.00;;;1.95;;
61015;SDS011;46902;52.920;6.536;2023-07-30T11:23:22;6.15;;;1.75;;
61015;SDS011;46902;52.920;6.536;2023-07-30T11:25:51;8.02;;;1.70;;
61015;SDS011;46902;52.920;6.536;2023-07-30T11:28:33;8.90;;;1.60;;
61015;SDS011;46902;52.920;6.536;2023-07-30T11:31:01;7.57;;;1.80;;
61015;SDS011;46902;52.920;6.536;2023-07-30T11:33:29;10.15;;;1.60;;
61015;SDS011;46902;52.920;6.536;2023-07-30T11:35:55;7.35;;;1.55;;
61015;SDS011;46902;52.920;6.536;2023-07-30T11:38:25;9.05;;;1.70;;
61015;SDS011;46902;52.920;6.536;2023-07-30T11:40:54;7.50;;;1.88;;
61015;SDS011;46902;52.920;6.536;2023-07-30T11:43:21;7.03;;;1.63;;
61015;SDS011;46902;52.920;6.536;2023-07-30T11:45:47;7.63;;;1.85;;
61015;SDS011;46902;52.920;6.536;2023-07-30T11:48:13;8.05;;;1.65;;
61015;SDS011;46902;52.920;6.536;2023-07-30T11:50:49;9.95;;;1.60;;
61015;SDS011;46902;52.920;6.536;2023-07-30T11:53:15;5.72;;;1.40;;
61015;SDS011;46902;52.920;6.536;2023-07-30T11:55:42;11.45;;;1.80;;
61015;SDS011;46902;52.920;6.536;2023-07-30T11:58:09;8.93;;;1.85;;
61015;SDS011;46902;52.920;6.536;2023-07-30T12:00:37;9.40;;;1.63;;
61015;SDS011;46902;52.920;6.536;2023-07-30T12:03:07;8.18;;;1.75;;
61015;SDS011;46902;52.920;6.536;2023-07-30T12:05:35;9.10;;;1.55;;
61015;SDS011;46902;52.920;6.536;2023-07-30T12:08:02;7.85;;;1.50;;
61015;SDS011;46902;52.920;6.536;2023-07-30T12:13:12;8.33;;;1.70;;
61015;SDS011;46902;52.920;6.536;2023-07-30T12:15:38;10.50;;;2.42;;
61015;SDS011;46902;52.920;6.536;2023-07-30T12:18:04;8.48;;;1.70;;
61015;SDS011;46902;52.920;6.536;2023-07-30T12:20:29;11.05;;;2.00;;
61015;SDS011;46902;52.920;6.536;2023-07-30T12:22:55;7.65;;;1.70;;
61015;SDS011;46902;52.920;6.536;2023-07-30T12:25:20;8.07;;;1.70;;
61015;SDS011;46902;52.920;6.536;2023-07-30T12:27:46;7.07;;;1.50;;
61015;SDS011;46902;52.920;6.536;2023-07-30T12:30:11;7.70;;;1.60;;
61015;SDS011;46902;52.920;6.536;2023-07-30T12:32:37;6.15;;;1.80;;
61015;SDS011;46902;52.920;6.536;2023-07-30T12:35:03;8.43;;;2.17;;
61015;SDS011;46902;52.920;6.536;2023-07-30T12:37:29;9.40;;;1.90;;
61015;SDS011;46902;52.920;6.536;2023-07-30T12:39:57;11.45;;;2.25;;
61015;SDS011;46902;52.920;6.536;2023-07-30T12:42:23;17.08;;;3.22;;
61015;SDS011;46902;52.920;6.536;2023-07-30T12:44:48;8.57;;;2.17;;
61015;SDS011;46902;52.920;6.536;2023-07-30T12:47:14;8.18;;;1.48;;
61015;SDS011;46902;52.920;6.536;2023-07-30T12:49:40;6.45;;;1.08;;
61015;SDS011;46902;52.920;6.536;2023-07-30T12:52:05;5.47;;;0.90;;
61015;SDS011;46902;52.920;6.536;2023-07-30T12:54:31;4.78;;;1.10;;
61015;SDS011;46902;52.920;6.536;2023-07-30T12:56:57;5.22;;;1.20;;
61015;SDS011;46902;52.920;6.536;2023-07-30T12:59:22;10.45;;;1.55;;
61015;SDS011;46902;52.920;6.536;2023-07-30T13:01:48;5.90;;;1.10;;
61015;SDS011;46902;52.920;6.536;2023-07-30T13:04:13;9.52;;;1.63;;
61015;SDS011;46902;52.920;6.536;2023-07-30T13:06:39;8.07;;;1.77;;
61015;SDS011;46902;52.920;6.536;2023-07-30T13:09:04;7.57;;;1.25;;
61015;SDS011;46902;52.920;6.536;2023-07-30T13:11:30;6.97;;;1.60;;
61015;SDS011;46902;52.920;6.536;2023-07-30T13:13:56;8.80;;;1.50;;
61015;SDS011;46902;52.920;6.536;2023-07-30T13:16:21;10.07;;;1.92;;
61015;SDS011;46902;52.920;6.536;2023-07-30T13:18:47;7.97;;;1.88;;
61015;SDS011;46902;52.920;6.536;2023-07-30T13:21:12;14.18;;;2.05;;
61015;SDS011;46902;52.920;6.536;2023-07-30T13:23:38;8.98;;;2.05;;
61015;SDS011;46902;52.920;6.536;2023-07-30T13:26:03;8.30;;;1.50;;
61015;SDS011;46902;52.920;6.536;2023-07-30T13:28:29;9.43;;;1.52;;
61015;SDS011;46902;52.920;6.536;2023-07-30T13:30:55;7.55;;;1.60;;
61015;SDS011;46902;52.920;6.536;2023-07-30T13:33:21;9.95;;;1.95;;
61015;SDS011;46902;52.920;6.536;2023-07-30T13:35:47;11.05;;;2.03;;
61015;SDS011;46902;52.920;6.536;2023-07-30T13:38:13;13.07;;;1.85;;
61015;SDS011;46902;52.920;6.536;2023-07-30T13:40:38;6.80;;;1.20;;
61015;SDS011;46902;52.920;6.536;2023-07-30T13:43:04;6.53;;;1.67;;
61015;SDS011;46902;52.920;6.536;2023-07-30T13:45:30;12.25;;;2.03;;
61015;SDS011;46902;52.920;6.536;2023-07-30T13:47:56;8.07;;;1.63;;
61015;SDS011;46902;52.920;6.536;2023-07-30T13:50:22;9.68;;;2.30;;
61015;SDS011;46902;52.920;6.536;2023-07-30T13:52:47;10.57;;;2.10;;
61015;SDS011;46902;52.920;6.536;2023-07-30T13:55:13;8.27;;;1.95;;
61015;SDS011;46902;52.920;6.536;2023-07-30T13:57:39;8.90;;;1.80;;
61015;SDS011;46902;52.920;6.536;2023-07-30T14:00:04;9.23;;;1.77;;
61015;SDS011;46902;52.920;6.536;2023-07-30T14:02:31;9.43;;;1.92;;
61015;SDS011;46902;52.920;6.536;2023-07-30T14:04:56;8.35;;;1.92;;
61015;SDS011;46902;52.920;6.536;2023-07-30T14:07:22;6.63;;;1.73;;
61015;SDS011;46902;52.920;6.536;2023-07-30T14:09:47;8.32;;;1.83;;
61015;SDS011;46902;52.920;6.536;2023-07-30T14:12:13;11.90;;;2.00;;
61015;SDS011;46902;52.920;6.536;2023-07-30T14:14:39;6.57;;;1.42;;
61015;SDS011;46902;52.920;6.536;2023-07-30T14:17:04;8.88;;;1.08;;
61015;SDS011;46902;52.920;6.536;2023-07-30T14:19:32;5.78;;;0.90;;
61015;SDS011;46902;52.920;6.536;2023-07-30T14:21:58;7.82;;;1.55;;
61015;SDS011;46902;52.920;6.536;2023-07-30T14:24:24;3.58;;;0.80;;
61015;SDS011;46902;52.920;6.536;2023-07-30T14:26:49;5.65;;;1.35;;
61015;SDS011;46902;52.920;6.536;2023-07-30T14:29:15;6.00;;;1.40;;
61015;SDS011;46902;52.920;6.536;2023-07-30T14:31:40;7.45;;;1.23;;
61015;SDS011;46902;52.920;6.536;2023-07-30T14:34:06;6.18;;;1.10;;
61015;SDS011;46902;52.920;6.536;2023-07-30T14:36:32;7.18;;;1.08;;
61015;SDS011;46902;52.920;6.536;2023-07-30T14:38:57;6.32;;;1.60;;
61015;SDS011;46902;52.920;6.536;2023-07-30T14:41:23;6.80;;;1.10;;
61015;SDS011;46902;52.920;6.536;2023-07-30T14:43:48;9.25;;;1.70;;